CheckWX is a tool to help pilots better visualize weather data.  It is not intended as a substitute for an official pre-flight weather briefing.

05:19:59 UTC

KLAW TAF
Lawton-Fort Sill Regional Airport
Lawton, Oklahoma, USA
KLAW 172320Z 1800/1824 10004KT P6SM SCT250 FM181200 17010KT P6SM FEW040 SCT250

Jun-18@
00:00 UTC

Jun-18 @ 00:00 UTC

Jun-18@
12:00 UTC

Jun-18 @ 12:00 UTC

KLAW 172320Z 1800/1824 10004KT P6SM SCT250
Wind
  • 100° at 4 KTS
Cloud Levels
  • Scattered at 25,000' AGL

Jun-18@
12:00 UTC

Jun-18 @ 12:00 UTC

Jun-19@
00:00 UTC

Jun-19 @ 00:00 UTC

FM181200 17010KT P6SM FEW040 SCT250

From

From Standard forecast or significant change

Wind
  • 170° at 10 KTS
Cloud Levels
  • Few at 4,000' AGL
  • Scattered at 25,000' AGL